Pagina principale
METAR-TAF:

METAR-TAF

Aeroporti :

Aeroporto di Trieste-Ronchi dei Legionari

Trieste / Ronchi dei Legionari, Italia

latitudine: 45-49N, longitudine: 013-29E, altezza: 12 m

Osservazione

Il bollettino è stato emesso 20 minuti fa, alle 16:20 UTC
Vento 3 kt da sud/sud-ovest
Temperature 5°C
Umidità 93%
Pressione 1018 hPa
Visibilità: 4300 m
foschia

METAR: LIPQ 201620Z AUTO 20003KT 4300 BR BKN020/// BKN023/// 05/04 Q1018

Ora: 17:40 (16:40 UTC)

Previsione

Il bollettino è stato emesso 5 ore e 40 minuti fa, alle 11:00 UTC
Previsione valida dal 20 alle 12 UTC al 21 alle 12 UTC
Vento 5 kt da direzioni variabili
Visibilità: 6000 m
Nuvoloso ad un'altezza di 2000 ft
Temporaneamente
dal 20 alle 17 UTC al 21 alle 03 UTC
Visibilità: 1500 m
Nuvoloso ad un'altezza di 1000 ft
foschia
Evoluzione graduale
dal 21 alle 03 UTC al 21 alle 06 UTC
Vento 10 kt da nord/nord-est

TAF: LIPQ 201100Z 2012/2112 VRB05KT 6000 BKN020 TEMPO 2017/2103 1500 BR BKN010 BECMG 2103/2106 03010KT

Osservazioni e previsioni meteorologiche di più di 4000 aeroporti (messaggi METAR e TAF).

Le stazioni disponibili sono rappresentate dai dischi gialli e rossi sulla carta.

Puntare il mouse per vedere il nome della stazione.

Clicca sopra per visualizzare le osservazioni e previsioni meteorologiche.

Per cambiare la mappa : fare clic sui pulsanti verdi con una croce nera per ingrandire, il pulsante verde con un trattino per diminuire, o sulla freccia verde per le mappe adiacenti.


METAR-TAF: